臺中航空站 - ATIS

METAR RCMQ 310930Z 25008KT 9999 FEW012 FEW014TCU SCT200 29/24 Q1010 NOSIG RMK A2985 TCU SE=

站台狀態:Offline
最後更新:2020-05-31 17:30:02